createdAt,value
2023-05-02T00:02:39.628Z,100613.63
2023-05-02T00:05:41.191Z,100613.09
2023-05-02T00:08:42.730Z,100614.31
2023-05-02T00:11:44.111Z,100610.91
2023-05-02T00:14:45.667Z,100614.41
2023-05-02T00:17:47.362Z,100609.13
2023-05-02T00:20:50.145Z,100613.50
2023-05-02T00:23:51.645Z,100608.19
2023-05-02T00:26:53.041Z,100611.72
2023-05-02T00:29:54.992Z,100610.84
2023-05-02T00:32:56.516Z,100610.03
2023-05-02T00:35:57.999Z,100613.59
2023-05-02T00:38:59.453Z,100619.13
2023-05-02T00:42:01.374Z,100623.16
2023-05-02T00:45:06.207Z,100611.84
2023-05-02T00:48:09.236Z,100613.75
2023-05-02T00:51:12.370Z,100619.56
2023-05-02T00:54:14.346Z,100625.22
2023-05-02T00:57:15.984Z,100624.69
2023-05-02T01:00:17.490Z,100622.31
2023-05-02T01:03:55.096Z,100626.59
2023-05-02T01:07:09.370Z,100632.06
2023-05-02T01:10:25.983Z,100623.47
2023-05-02T01:13:33.950Z,100629.94
2023-05-02T01:16:40.477Z,100626.56
2023-05-02T01:19:49.254Z,100626.69
2023-05-02T01:22:52.615Z,100618.13
2023-05-02T01:26:16.690Z,100627.41
2023-05-02T01:29:22.634Z,100623.47
2023-05-02T01:32:26.333Z,100645.47
2023-05-02T01:35:30.556Z,100636.22
2023-05-02T01:38:34.733Z,100640.16
2023-05-02T01:41:37.614Z,100638.88
2023-05-02T01:44:41.125Z,100645.34
2023-05-02T01:47:44.250Z,100652.69
2023-05-02T01:50:48.029Z,100656.38
2023-05-02T01:53:50.863Z,100659.75
2023-05-02T01:56:52.696Z,100666.81
2023-05-02T01:59:57.046Z,100669.72
2023-05-02T02:03:00.078Z,100683.31
2023-05-02T02:06:03.697Z,100677.94
2023-05-02T02:09:05.985Z,100680.75
2023-05-02T02:12:22.400Z,100675.03
2023-05-02T02:15:34.187Z,100682.63
2023-05-02T02:18:38.097Z,100693.22
2023-05-02T02:21:42.348Z,100693.16
2023-05-02T02:24:46.334Z,100700.09
2023-05-02T02:27:49.008Z,100704.78
2023-05-02T02:30:50.739Z,100712.88
2023-05-02T02:33:52.584Z,100714.03
2023-05-02T02:37:15.492Z,100712.56
2023-05-02T02:40:20.886Z,100718.97
2023-05-02T02:43:41.098Z,100722.91
2023-05-02T02:46:50.537Z,100733.00
2023-05-02T02:50:31.331Z,100738.31
2023-05-02T02:54:00.283Z,100734.66
2023-05-02T02:57:07.599Z,100736.19
2023-05-02T03:00:15.907Z,100738.63
2023-05-02T03:03:18.949Z,100739.50
2023-05-02T03:06:20.795Z,100750.31
2023-05-02T03:09:22.565Z,100756.09
2023-05-02T03:12:25.590Z,100757.13
2023-05-02T03:16:12.157Z,100754.16
2023-05-02T03:19:13.638Z,100757.44
2023-05-02T03:22:15.232Z,100757.22
2023-05-02T03:25:16.765Z,100758.94
2023-05-02T03:28:21.468Z,100760.25
2023-05-02T03:31:26.382Z,100756.09
2023-05-02T03:34:28.579Z,100759.72
2023-05-02T03:37:30.978Z,100757.88
2023-05-02T03:40:34.533Z,100759.63
2023-05-02T03:43:36.206Z,100770.22
2023-05-02T03:46:38.133Z,100775.84
2023-05-02T03:49:43.273Z,100777.91
2023-05-02T03:52:45.670Z,100776.34
2023-05-02T03:55:48.078Z,100782.84
2023-05-02T03:58:59.453Z,100789.22
2023-05-02T04:02:02.227Z,100797.56
2023-05-02T04:05:12.592Z,100802.84
2023-05-02T04:08:15.024Z,100803.09
2023-05-02T04:11:17.124Z,100803.28
2023-05-02T04:14:18.989Z,100805.91
2023-05-02T04:17:21.451Z,100811.25
2023-05-02T04:20:25.097Z,100819.25
2023-05-02T04:23:28.901Z,100817.44
2023-05-02T04:26:34.364Z,100827.28
2023-05-02T04:29:41.178Z,100817.84
2023-05-02T04:32:44.185Z,100830.03
2023-05-02T04:35:46.764Z,100836.16
2023-05-02T04:38:49.424Z,100847.75
2023-05-02T04:41:52.076Z,100845.06
2023-05-02T04:44:54.903Z,100849.50
2023-05-02T04:47:56.758Z,100853.28
2023-05-02T04:50:58.213Z,100864.88
2023-05-02T04:53:59.816Z,100861.50
2023-05-02T04:57:03.631Z,100878.19
2023-05-02T05:00:08.446Z,100872.25
2023-05-02T05:03:10.593Z,100884.72
2023-05-02T05:06:12.576Z,100877.63
2023-05-02T05:09:14.159Z,100883.72
2023-05-02T05:12:15.599Z,100890.63
2023-05-02T05:15:18.073Z,100896.66
2023-05-02T05:18:25.781Z,100901.06
2023-05-02T05:21:28.316Z,100903.66
2023-05-02T05:24:30.638Z,100898.09
2023-05-02T05:27:34.446Z,100908.31
2023-05-02T05:30:36.061Z,100915.84
2023-05-02T05:33:39.882Z,100917.31
2023-05-02T05:36:43.468Z,100925.91
2023-05-02T05:39:44.914Z,100925.81
2023-05-02T05:42:47.649Z,100938.88
2023-05-02T05:45:56.856Z,100937.00
2023-05-02T05:48:59.210Z,100949.75
2023-05-02T05:52:02.814Z,100953.19
2023-05-02T05:55:05.509Z,100959.28
2023-05-02T05:58:08.503Z,100962.06
2023-05-02T06:01:11.728Z,100960.06
2023-05-02T06:04:13.336Z,100954.66
2023-05-02T06:07:18.266Z,100957.91
2023-05-02T06:10:21.296Z,100963.72
2023-05-02T06:13:22.946Z,100965.72
2023-05-02T06:16:25.404Z,100978.53
2023-05-02T06:19:26.894Z,100978.59
2023-05-02T06:22:28.309Z,100983.63
2023-05-02T06:25:29.906Z,100979.16
2023-05-02T06:28:31.917Z,100989.38
2023-05-02T06:31:33.385Z,100996.22
2023-05-02T06:34:34.886Z,101001.25
2023-05-02T06:37:36.500Z,101000.91
2023-05-02T06:40:45.029Z,101006.72
2023-05-02T06:43:46.487Z,101009.13
2023-05-02T06:46:47.995Z,101017.78
2023-05-02T06:49:50.954Z,101012.31
2023-05-02T06:52:52.333Z,101011.91
2023-05-02T06:55:53.787Z,101016.75
2023-05-02T06:58:55.309Z,101018.63
2023-05-02T07:01:56.701Z,101017.09
2023-05-02T07:04:58.078Z,101020.28
2023-05-02T07:07:59.614Z,101021.50
2023-05-02T07:11:02.161Z,101023.03
2023-05-02T07:14:03.580Z,101018.03
2023-05-02T07:17:05.127Z,101022.91
2023-05-02T07:20:07.668Z,101017.50
2023-05-02T07:23:09.326Z,101015.13
2023-05-02T07:26:11.222Z,101019.16
2023-05-02T07:29:12.654Z,101009.72
2023-05-02T07:32:14.106Z,101016.97
2023-05-02T07:35:15.649Z,101021.91
2023-05-02T07:38:17.198Z,101018.41
2023-05-02T07:41:18.576Z,101019.97
2023-05-02T07:44:21.382Z,101013.81
2023-05-02T07:47:22.888Z,101022.13
2023-05-02T07:50:24.367Z,101023.41
2023-05-02T07:53:26.205Z,101027.13
2023-05-02T07:56:28.100Z,101021.56
2023-05-02T07:59:31.147Z,101030.31
2023-05-02T08:02:32.858Z,101034.84
2023-05-02T08:05:34.366Z,101036.84
2023-05-02T08:08:36.031Z,101048.19
2023-05-02T08:11:37.460Z,101053.41
2023-05-02T08:14:38.992Z,101045.91
2023-05-02T08:17:40.438Z,101048.31
2023-05-02T08:20:43.201Z,101051.06
2023-05-02T08:23:46.183Z,101052.81
2023-05-02T08:26:47.632Z,101053.91
2023-05-02T08:29:49.079Z,101053.78
2023-05-02T08:32:50.600Z,101051.56
2023-05-02T08:35:52.875Z,101049.31
2023-05-02T08:38:54.384Z,101052.28
2023-05-02T08:41:55.787Z,101063.72
2023-05-02T08:44:57.934Z,101060.88
2023-05-02T08:48:00.195Z,101056.38
2023-05-02T08:51:02.924Z,101065.16
2023-05-02T08:54:07.466Z,101059.69
2023-05-02T08:57:08.916Z,101067.22
2023-05-02T09:00:11.411Z,101067.47
2023-05-02T09:03:31.287Z,101061.63
2023-05-02T09:06:32.788Z,101063.19
2023-05-02T09:09:34.439Z,101062.63
2023-05-02T09:12:35.870Z,101069.28
2023-05-02T09:15:37.457Z,101063.84
2023-05-02T09:18:49.647Z,101070.88
2023-05-02T09:21:51.045Z,101074.25
2023-05-02T09:24:55.645Z,101076.41
2023-05-02T09:27:57.200Z,101079.81
2023-05-02T09:31:14.074Z,101088.09
2023-05-02T09:34:17.374Z,101084.00
2023-05-02T09:37:35.638Z,101087.69
2023-05-02T09:40:37.721Z,101090.50
2023-05-02T09:43:40.148Z,101095.56
2023-05-02T09:46:43.045Z,101092.69
2023-05-02T09:49:46.288Z,101097.31
2023-05-02T09:53:01.266Z,101096.00
2023-05-02T09:56:04.406Z,101097.88
2023-05-02T09:59:14.482Z,101104.75
2023-05-02T10:02:16.025Z,101099.53
2023-05-02T10:05:18.036Z,101101.41
2023-05-02T10:08:20.447Z,101101.19
2023-05-02T10:11:22.539Z,101091.19
2023-05-02T10:14:29.480Z,101102.53
2023-05-02T10:17:34.090Z,101104.66
2023-05-02T10:20:41.303Z,101119.13
2023-05-02T10:23:46.375Z,101121.28
2023-05-02T10:26:48.407Z,101114.13
2023-05-02T10:29:51.782Z,101120.19
2023-05-02T10:32:56.751Z,101125.66
2023-05-02T10:35:58.613Z,101123.91
2023-05-02T10:39:00.998Z,101119.00
2023-05-02T10:42:04.531Z,101116.91
2023-05-02T10:45:11.966Z,101120.59
2023-05-02T10:48:26.651Z,101128.75
2023-05-02T10:51:31.933Z,101133.34
2023-05-02T10:54:33.340Z,101118.06
2023-05-02T10:57:34.861Z,101123.44
2023-05-02T11:00:36.512Z,101120.34
2023-05-02T11:03:57.480Z,101116.28
2023-05-02T11:07:02.148Z,101117.59
2023-05-02T11:10:20.251Z,101112.03
2023-05-02T11:13:50.709Z,101115.53
2023-05-02T11:16:58.673Z,101113.22
2023-05-02T11:20:01.651Z,101116.06
2023-05-02T11:23:15.414Z,101111.59
2023-05-02T11:26:23.169Z,101107.63
2023-05-02T11:29:51.573Z,101113.53
2023-05-02T11:32:53.476Z,101114.59
2023-05-02T11:35:56.867Z,101104.88
2023-05-02T11:38:58.322Z,101105.78
2023-05-02T11:41:59.735Z,101097.25
2023-05-02T11:45:01.568Z,101092.03
2023-05-02T11:48:07.313Z,101095.41
2023-05-02T11:51:08.929Z,101085.25
2023-05-02T11:54:18.641Z,101090.25
2023-05-02T11:57:20.115Z,101098.19
2023-05-02T12:00:27.387Z,101095.22
2023-05-02T12:03:31.400Z,101092.09
2023-05-02T12:06:33.693Z,101085.56
2023-05-02T12:09:35.117Z,101079.34
2023-05-02T12:12:37.313Z,101091.47
2023-05-02T12:15:38.932Z,101088.88
2023-05-02T12:18:40.853Z,101088.03
2023-05-02T12:21:42.458Z,101083.44
2023-05-02T12:24:44.360Z,101087.19
2023-05-02T12:28:02.389Z,101091.69
2023-05-02T12:31:10.995Z,101093.22
2023-05-02T12:34:12.436Z,101092.31
2023-05-02T12:37:23.214Z,101097.59
2023-05-02T12:40:25.973Z,101097.66
2023-05-02T12:43:27.376Z,101087.56
2023-05-02T12:46:29.458Z,101090.88
2023-05-02T12:49:31.066Z,101088.25
2023-05-02T12:52:59.047Z,101091.13
2023-05-02T12:56:03.716Z,101086.72
2023-05-02T12:59:05.768Z,101085.91
2023-05-02T13:02:07.588Z,101089.56
2023-05-02T13:05:16.142Z,101091.50
2023-05-02T13:08:17.512Z,101095.31
2023-05-02T13:11:20.471Z,101091.38
2023-05-02T13:14:21.965Z,101094.75
2023-05-02T13:17:23.525Z,101090.75
2023-05-02T13:20:25.192Z,101088.56
2023-05-02T13:23:26.641Z,101088.75
2023-05-02T13:26:28.154Z,101081.81
2023-05-02T13:29:29.744Z,101087.75
2023-05-02T13:32:31.330Z,101086.84
2023-05-02T13:35:33.522Z,101077.75
2023-05-02T13:38:36.715Z,101079.47
2023-05-02T13:41:38.148Z,101070.97
2023-05-02T13:44:39.651Z,101095.06
2023-05-02T13:47:41.655Z,101088.81
2023-05-02T13:50:43.302Z,101079.06
2023-05-02T13:53:45.245Z,101073.28
2023-05-02T13:56:46.713Z,101084.53
2023-05-02T13:59:48.158Z,101076.50
2023-05-02T14:02:49.615Z,101084.16
2023-05-02T14:05:51.165Z,101082.44
2023-05-02T14:08:52.664Z,101084.19
2023-05-02T14:11:54.177Z,101076.59
2023-05-02T14:14:55.628Z,101070.13
2023-05-02T14:17:58.045Z,101071.84
2023-05-02T14:21:00.091Z,101078.41
2023-05-02T14:24:01.664Z,101075.66
2023-05-02T14:27:04.545Z,101070.88
2023-05-02T14:30:07.187Z,101081.88
2023-05-02T14:33:08.777Z,101077.66
2023-05-02T14:36:10.272Z,101084.81
2023-05-02T14:39:11.666Z,101086.75
2023-05-02T14:42:13.063Z,101091.25
2023-05-02T14:45:14.595Z,101075.75
2023-05-02T14:48:17.401Z,101072.28
2023-05-02T14:51:19.000Z,101078.03
2023-05-02T14:54:20.572Z,101074.50
2023-05-02T14:57:21.956Z,101077.28
2023-05-02T15:00:23.714Z,101075.53
2023-05-02T15:03:25.449Z,101075.94
2023-05-02T15:06:32.961Z,101074.13
2023-05-02T15:09:34.462Z,101078.94
2023-05-02T15:12:35.881Z,101085.75
2023-05-02T15:15:37.443Z,101088.19
2023-05-02T15:18:38.952Z,101080.34
2023-05-02T15:21:40.547Z,101087.59
2023-05-02T15:24:42.126Z,101086.19
2023-05-02T15:27:44.192Z,101085.13
2023-05-02T15:30:45.985Z,101089.22
2023-05-02T15:33:47.796Z,101086.19
2023-05-02T15:36:49.172Z,101088.97
2023-05-02T15:39:51.882Z,101097.06
2023-05-02T15:42:53.305Z,101092.91
2023-05-02T15:45:59.625Z,101089.91
2023-05-02T15:49:01.208Z,101089.50
2023-05-02T15:52:03.157Z,101090.50
2023-05-02T15:55:05.063Z,101090.78
2023-05-02T15:58:06.588Z,101101.00
2023-05-02T16:01:08.185Z,101098.91
2023-05-02T16:04:09.899Z,101096.41
2023-05-02T16:07:11.429Z,101095.47
2023-05-02T16:10:12.945Z,101102.72
2023-05-02T16:13:14.391Z,101095.25
2023-05-02T16:16:15.907Z,101106.84
2023-05-02T16:19:17.894Z,101104.41
2023-05-02T16:22:19.462Z,101110.25
2023-05-02T16:25:21.111Z,101104.50
2023-05-02T16:28:22.478Z,101102.41
2023-05-02T16:31:23.953Z,101114.84
2023-05-02T16:34:25.769Z,101111.81
2023-05-02T16:37:27.245Z,101111.72
2023-05-02T16:40:28.693Z,101123.22
2023-05-02T16:43:30.100Z,101122.66
2023-05-02T16:46:31.744Z,101121.13
2023-05-02T16:49:33.487Z,101130.84
2023-05-02T16:52:37.446Z,101127.59
2023-05-02T16:55:38.952Z,101126.03
2023-05-02T16:58:42.256Z,101131.03
2023-05-02T17:01:43.660Z,101123.09
2023-05-02T17:04:45.049Z,101127.28
2023-05-02T17:07:46.585Z,101127.31
2023-05-02T17:10:49.902Z,101128.38
2023-05-02T17:13:52.484Z,101128.13
2023-05-02T17:16:53.899Z,101139.41
2023-05-02T17:19:55.466Z,101137.84
2023-05-02T17:22:57.621Z,101129.59
2023-05-02T17:25:59.258Z,101142.06
2023-05-02T17:29:00.738Z,101130.16
2023-05-02T17:32:02.467Z,101131.13
2023-05-02T17:35:04.380Z,101136.81
2023-05-02T17:38:05.867Z,101141.59
2023-05-02T17:41:07.322Z,101142.94
2023-05-02T17:44:10.058Z,101146.56
2023-05-02T17:47:12.069Z,101143.97
2023-05-02T17:50:15.052Z,101147.66
2023-05-02T17:53:16.819Z,101152.22
2023-05-02T17:56:21.276Z,101157.25
2023-05-02T17:59:22.885Z,101161.94
2023-05-02T18:02:25.794Z,101164.16
2023-05-02T18:05:27.954Z,101174.06
2023-05-02T18:08:31.185Z,101173.09
2023-05-02T18:11:33.084Z,101167.50
2023-05-02T18:14:34.840Z,101181.13
2023-05-02T18:17:37.452Z,101178.03
2023-05-02T18:20:40.509Z,101187.53
2023-05-02T18:23:42.537Z,101184.22
2023-05-02T18:26:43.945Z,101184.09
2023-05-02T18:29:45.395Z,101199.56
2023-05-02T18:32:46.961Z,101198.97
2023-05-02T18:35:48.947Z,101198.97
2023-05-02T18:38:50.372Z,101203.94
2023-05-02T18:41:51.746Z,101208.22
2023-05-02T18:44:53.303Z,101214.16
2023-05-02T18:47:54.791Z,101212.84
2023-05-02T18:50:56.798Z,101218.25
2023-05-02T18:53:58.210Z,101230.78
2023-05-02T18:57:02.744Z,101236.47
2023-05-02T19:00:06.440Z,101247.31
2023-05-02T19:03:08.002Z,101253.88
2023-05-02T19:06:10.233Z,101252.81
2023-05-02T19:09:15.711Z,101258.44
2023-05-02T19:12:17.125Z,101263.16
2023-05-02T19:15:18.851Z,101261.16
2023-05-02T19:18:23.074Z,101270.28
2023-05-02T19:21:24.486Z,101276.63
2023-05-02T19:24:27.494Z,101288.41
2023-05-02T19:27:29.256Z,101282.63
2023-05-02T19:30:30.669Z,101297.88
2023-05-02T19:33:32.081Z,101297.03
2023-05-02T19:36:34.647Z,101293.88
2023-05-02T19:39:36.539Z,101304.84
2023-05-02T19:42:39.245Z,101312.28
2023-05-02T19:45:40.875Z,101319.94
2023-05-02T19:48:42.489Z,101329.06
2023-05-02T19:51:43.975Z,101336.25
2023-05-02T19:54:45.539Z,101341.66
2023-05-02T19:57:50.164Z,101332.13
2023-05-02T20:00:52.769Z,101349.88
2023-05-02T20:03:54.830Z,101340.31
2023-05-02T20:06:56.265Z,101345.97
2023-05-02T20:09:58.568Z,101349.66
2023-05-02T20:13:00.010Z,101349.03
2023-05-02T20:16:01.646Z,101351.78
2023-05-02T20:19:04.152Z,101363.47
2023-05-02T20:22:05.677Z,101360.94
2023-05-02T20:25:09.558Z,101363.03
2023-05-02T20:28:10.988Z,101369.38
2023-05-02T20:31:12.417Z,101372.13
2023-05-02T20:34:13.886Z,101367.91
2023-05-02T20:37:15.771Z,101369.03
2023-05-02T20:40:18.891Z,101379.63
2023-05-02T20:43:22.935Z,101381.50
2023-05-02T20:46:24.391Z,101371.91
2023-05-02T20:49:26.008Z,101377.25
2023-05-02T20:52:27.386Z,101378.53
2023-05-02T20:55:29.549Z,101385.56
2023-05-02T20:58:31.493Z,101378.63
2023-05-02T21:01:33.476Z,101387.94
2023-05-02T21:04:34.953Z,101386.31
2023-05-02T21:07:36.555Z,101378.38
2023-05-02T21:10:38.062Z,101383.88
2023-05-02T21:13:39.429Z,101387.53
2023-05-02T21:16:40.850Z,101391.00
2023-05-02T21:19:42.237Z,101388.00
2023-05-02T21:22:43.671Z,101399.56
2023-05-02T21:25:45.245Z,101396.63
2023-05-02T21:28:46.701Z,101391.41
2023-05-02T21:31:48.171Z,101395.94
2023-05-02T21:34:49.573Z,101395.31
2023-05-02T21:37:50.935Z,101398.94
2023-05-02T21:40:53.137Z,101401.38
2023-05-02T21:43:54.699Z,101401.28
2023-05-02T21:46:56.135Z,101402.09
2023-05-02T21:49:57.588Z,101401.47
2023-05-02T21:52:58.976Z,101402.38
2023-05-02T21:56:00.780Z,101403.22
2023-05-02T21:59:02.817Z,101388.91
2023-05-02T22:02:04.239Z,101394.41
2023-05-02T22:05:05.836Z,101407.72
2023-05-02T22:08:08.983Z,101409.09
2023-05-02T22:11:10.502Z,101412.66
2023-05-02T22:14:11.903Z,101406.44
2023-05-02T22:17:13.661Z,101415.25
2023-05-02T22:20:15.114Z,101411.72
2023-05-02T22:23:16.547Z,101409.97
2023-05-02T22:26:17.918Z,101413.75
2023-05-02T22:29:19.281Z,101412.03
2023-05-02T22:32:22.352Z,101408.63
2023-05-02T22:35:23.728Z,101415.13
2023-05-02T22:38:25.219Z,101412.44
2023-05-02T22:41:26.588Z,101421.28
2023-05-02T22:44:28.004Z,101426.50
2023-05-02T22:47:29.614Z,101426.50
2023-05-02T22:50:31.077Z,101430.47
2023-05-02T22:53:32.455Z,101437.34
2023-05-02T22:56:34.267Z,101428.53
2023-05-02T22:59:35.713Z,101429.44
2023-05-02T23:02:37.530Z,101421.78
2023-05-02T23:05:39.158Z,101427.38
2023-05-02T23:08:40.582Z,101430.50
2023-05-02T23:11:42.042Z,101435.16
2023-05-02T23:14:44.862Z,101431.22
2023-05-02T23:17:46.295Z,101438.41
2023-05-02T23:20:47.704Z,101435.91
2023-05-02T23:23:49.100Z,101434.94
2023-05-02T23:26:50.940Z,101434.06
2023-05-02T23:29:52.359Z,101439.22
2023-05-02T23:32:53.887Z,101438.47
2023-05-02T23:35:55.343Z,101437.44
2023-05-02T23:38:56.863Z,101434.53
2023-05-02T23:41:58.394Z,101434.50
2023-05-02T23:44:59.922Z,101442.44
2023-05-02T23:48:01.519Z,101443.41
2023-05-02T23:51:02.982Z,101444.19
2023-05-02T23:54:04.475Z,101447.00
2023-05-02T23:57:05.861Z,101448.13
